Time;durP1;ratioP1;P1;durP2;ratioP2;P2;SDS_P1;SDS_P2;PMS_P1;PMS_P2;Temp;Humidity;BMP_temperature;BMP_pressure;BME280_temperature;BME280_humidity;BME280_pressure;Samples;Min_cycle;Max_cycle;Signal;HPM_P1;HPM_P2
2022/01/03 00:01:18;;;;;;;6.30;1.70;;;12.30;99.90;;;;;;5085638;28;20203;-77
2022/01/03 00:03:45;;;;;;;3.28;0.98;;;12.20;99.90;;;;;;5085326;28;20056;-77
2022/01/03 00:06:11;;;;;;;3.85;0.88;;;12.20;99.90;;;;;;5085294;28;20028;-78
2022/01/03 00:08:42;;;;;;;4.43;1.00;;;12.20;99.90;;;;;;5085434;28;20043;-77
2022/01/03 00:11:12;;;;;;;4.90;1.05;;;12.20;99.90;;;;;;5086057;28;20055;-76
2022/01/03 00:13:46;;;;;;;4.30;0.90;;;12.30;99.90;;;;;;5103622;28;20310;-76
2022/01/03 00:16:13;;;;;;;3.17;0.82;;;12.40;99.90;;;;;;5103345;28;20333;-76
2022/01/03 00:18:39;;;;;;;4.85;0.88;;;12.40;99.90;;;;;;5103040;28;20028;-77
2022/01/03 00:21:16;;;;;;;5.90;0.93;;;12.60;99.90;;;;;;5103557;28;20211;-77
2022/01/03 00:23:54;;;;;;;5.72;1.15;;;12.50;99.90;;;;;;5084919;28;20058;-77
2022/01/03 00:26:25;;;;;;;3.10;0.70;;;12.60;99.90;;;;;;5103460;28;20082;-76
2022/01/03 00:29:00;;;;;;;3.78;0.80;;;12.50;99.90;;;;;;5103286;28;20040;-76
2022/01/03 00:31:40;;;;;;;2.95;0.75;;;12.60;99.90;;;;;;5102625;28;20040;-77
2022/01/03 00:34:08;;;;;;;3.50;0.80;;;12.60;99.90;;;;;;5068741;28;20310;-77
2022/01/03 00:36:35;;;;;;;6.07;0.80;;;12.60;99.90;;;;;;5084198;28;20059;-77
2022/01/03 00:39:07;;;;;;;7.35;1.38;;;12.70;99.90;;;;;;5085441;28;20629;-76
2022/01/03 00:41:36;;;;;;;3.80;0.60;;;12.70;99.90;;;;;;5103022;28;20028;-76
2022/01/03 00:44:02;;;;;;;4.85;0.95;;;12.90;99.90;;;;;;5103131;28;20364;-77
2022/01/03 00:46:29;;;;;;;4.30;1.00;;;13.00;99.90;;;;;;5084280;28;20036;-77
2022/01/03 00:48:55;;;;;;;3.03;0.80;;;13.00;99.90;;;;;;5085115;28;20066;-76
2022/01/03 00:51:21;;;;;;;3.70;0.90;;;13.00;99.90;;;;;;5103110;28;20044;-77
2022/01/03 00:53:47;;;;;;;3.17;0.85;;;13.00;99.90;;;;;;5102253;28;20055;-76
2022/01/03 00:56:29;;;;;;;3.67;1.00;;;13.10;99.90;;;;;;5103031;28;20032;-77
2022/01/03 00:59:04;;;;;;;4.15;0.88;;;13.10;99.90;;;;;;5102379;28;20042;-77
2022/01/03 01:01:34;;;;;;;3.60;0.90;;;13.00;99.90;;;;;;5100434;28;20031;-77
2022/01/03 01:04:02;;;;;;;4.45;1.10;;;12.90;99.90;;;;;;5069936;28;20024;-78
2022/01/03 01:06:32;;;;;;;5.63;1.13;;;12.90;99.90;;;;;;5079249;28;20017;-76
2022/01/03 01:09:01;;;;;;;5.43;1.30;;;12.80;99.90;;;;;;5080679;28;20471;-76
2022/01/03 01:11:28;;;;;;;5.22;1.00;;;12.80;99.90;;;;;;5079942;28;20083;-76
2022/01/03 01:13:56;;;;;;;3.60;1.00;;;12.80;99.90;;;;;;5062866;28;20028;-76
2022/01/03 01:16:23;;;;;;;5.32;0.90;;;12.70;99.90;;;;;;5079569;28;20024;-76
2022/01/03 01:18:51;;;;;;;2.95;0.88;;;12.70;99.90;;;;;;5079374;28;20032;-76
2022/01/03 01:21:18;;;;;;;3.22;0.88;;;12.50;99.90;;;;;;5082622;28;20024;-76
2022/01/03 01:23:44;;;;;;;5.15;1.30;;;12.50;99.90;;;;;;5082380;28;20024;-78
2022/01/03 01:28:56;;;;;;;4.03;0.82;;;12.70;99.90;;;;;;5082837;28;20043;-76
2022/01/03 01:31:24;;;;;;;3.85;1.00;;;12.70;99.90;;;;;;5101493;28;20031;-76
2022/01/03 01:33:56;;;;;;;4.32;1.05;;;12.70;99.90;;;;;;5067523;28;20103;-77
2022/01/03 01:36:28;;;;;;;4.55;0.98;;;12.60;99.90;;;;;;5084384;28;20032;-77
2022/01/03 01:39:04;;;;;;;5.88;1.33;;;12.60;99.90;;;;;;5084248;28;20331;-77
2022/01/03 01:41:30;;;;;;;6.00;1.05;;;12.60;99.90;;;;;;5084385;28;20031;-75
2022/01/03 01:43:59;;;;;;;4.22;1.27;;;12.50;99.90;;;;;;5102404;28;20029;-75
2022/01/03 01:46:26;;;;;;;6.25;1.10;;;12.50;99.90;;;;;;5101374;28;20054;-76
2022/01/03 01:49:05;;;;;;;5.13;1.40;;;12.50;99.90;;;;;;5084525;28;20107;-76
2022/01/03 01:51:36;;;;;;;;;;;12.60;99.90;;;;;;5084448;28;20126;-77
2022/01/03 01:54:05;;;;;;;6.03;1.00;;;12.50;99.90;;;;;;5084517;28;19904;-76
2022/01/03 01:57:03;;;;;;;4.28;1.10;;;12.40;99.90;;;;;;5083887;28;20348;-77
2022/01/03 01:59:53;;;;;;;3.28;1.00;;;12.40;99.90;;;;;;5083889;28;20035;-76
2022/01/03 02:02:37;;;;;;;3.60;0.82;;;12.30;99.90;;;;;;5084425;28;20202;-76
2022/01/03 02:05:23;;;;;;;4.03;0.90;;;12.40;99.90;;;;;;5064356;28;20024;-76
2022/01/03 02:08:06;;;;;;;3.70;0.88;;;12.40;99.90;;;;;;5063804;28;20058;-76
2022/01/03 02:10:39;;;;;;;4.90;1.33;;;12.50;99.90;;;;;;5063993;28;20055;-76
2022/01/03 02:13:06;;;;;;;4.43;0.98;;;12.50;99.90;;;;;;5064277;28;20097;-76
2022/01/03 02:15:35;;;;;;;3.57;0.87;;;12.50;99.90;;;;;;5080172;28;20029;-76
2022/01/03 02:18:05;;;;;;;4.25;1.02;;;12.40;99.90;;;;;;5063982;28;20029;-77
2022/01/03 02:20:32;;;;;;;5.20;0.75;;;12.40;99.90;;;;;;5063867;28;20252;-76
2022/01/03 02:23:03;;;;;;;3.90;0.82;;;12.50;99.90;;;;;;5064030;28;20028;-76
2022/01/03 02:25:33;;;;;;;4.30;0.90;;;12.40;99.90;;;;;;5063051;28;20045;-76
2022/01/03 02:27:59;;;;;;;5.30;1.23;;;12.40;99.90;;;;;;5081681;28;20106;-75
2022/01/03 02:30:30;;;;;;;3.58;0.88;;;12.30;99.90;;;;;;5050118;28;20032;-76
2022/01/03 02:32:56;;;;;;;6.68;1.02;;;12.30;99.90;;;;;;5067918;28;20040;-76
2022/01/03 02:35:23;;;;;;;4.25;1.00;;;12.20;99.90;;;;;;5067595;28;20047;-76
2022/01/03 02:37:50;;;;;;;4.25;1.02;;;12.20;99.90;;;;;;5067190;28;20025;-76
2022/01/03 02:40:19;;;;;;;3.55;1.10;;;12.20;99.90;;;;;;5067603;28;20023;-76
2022/01/03 02:42:48;;;;;;;7.60;1.48;;;12.20;99.90;;;;;;5083759;28;20033;-76
2022/01/03 02:45:18;;;;;;;5.50;1.15;;;12.20;99.90;;;;;;5067505;28;20036;-76
2022/01/03 02:47:48;;;;;;;6.93;1.33;;;12.10;99.90;;;;;;5066911;28;20051;-76
2022/01/03 02:50:16;;;;;;;4.15;1.05;;;12.20;99.90;;;;;;5085077;28;20040;-76
2022/01/03 02:52:43;;;;;;;4.43;1.00;;;12.10;99.90;;;;;;5066902;28;20211;-76
2022/01/03 02:55:11;;;;;;;4.07;1.02;;;12.20;99.90;;;;;;5067352;28;20085;-76
2022/01/03 02:57:38;;;;;;;5.37;0.97;;;12.20;99.90;;;;;;5084566;28;20032;-76
2022/01/03 03:00:09;;;;;;;3.13;0.98;;;12.20;99.90;;;;;;5066989;28;20062;-76
2022/01/03 03:02:35;;;;;;;5.53;1.20;;;12.10;99.90;;;;;;5067651;28;20055;-76
2022/01/03 03:05:07;;;;;;;3.55;0.90;;;12.00;99.90;;;;;;5087306;28;20303;-76
2022/01/03 03:07:34;;;;;;;4.00;0.80;;;11.90;99.90;;;;;;5104967;28;20065;-77
2022/01/03 03:10:03;;;;;;;3.47;0.85;;;12.00;99.90;;;;;;5104784;28;20064;-76
2022/01/03 03:12:29;;;;;;;3.90;0.90;;;12.00;99.90;;;;;;5070528;28;20032;-76
2022/01/03 03:14:56;;;;;;;6.10;1.17;;;12.00;99.90;;;;;;5086553;28;20028;-76
2022/01/03 03:17:22;;;;;;;4.95;1.10;;;11.80;99.90;;;;;;5104879;28;20092;-77
2022/01/03 03:20:00;;;;;;;3.60;0.68;;;11.70;99.90;;;;;;5086541;28;20039;-76
2022/01/03 03:22:30;;;;;;;3.83;1.08;;;11.80;99.90;;;;;;5105410;28;20099;-76
2022/01/03 03:25:09;;;;;;;3.38;0.90;;;11.60;99.90;;;;;;5086169;28;20043;-76
2022/01/03 03:27:37;;;;;;;;;;;11.60;99.90;;;;;;5105258;28;20027;-76
2022/01/03 03:30:04;;;;;;;3.63;0.82;;;11.70;99.90;;;;;;5086699;28;19950;-76
2022/01/03 03:32:31;;;;;;;5.93;1.20;;;11.50;99.90;;;;;;5086737;28;20032;-76
2022/01/03 03:34:58;;;;;;;4.45;0.90;;;11.70;99.90;;;;;;5086135;28;20245;-76
2022/01/03 03:37:24;;;;;;;3.55;0.90;;;11.70;99.90;;;;;;5104475;28;20023;-76
2022/01/03 03:39:50;;;;;;;3.78;0.90;;;11.50;99.90;;;;;;5069473;28;20065;-76
2022/01/03 03:42:17;;;;;;;6.63;0.90;;;11.30;99.90;;;;;;5069464;28;20023;-76
2022/01/03 03:44:45;;;;;;;3.70;1.00;;;11.30;99.90;;;;;;5104041;28;20022;-76
2022/01/03 03:47:12;;;;;;;4.90;1.10;;;11.10;99.90;;;;;;5087035;28;20044;-76
2022/01/03 03:49:38;;;;;;;4.32;0.90;;;11.10;99.90;;;;;;5085664;28;20040;-76
2022/01/03 03:52:05;;;;;;;6.13;0.98;;;11.20;99.90;;;;;;5086876;28;20028;-75
2022/01/03 03:54:33;;;;;;;4.85;0.75;;;11.20;99.90;;;;;;5086284;28;20024;-75
2022/01/03 03:57:00;;;;;;;4.57;0.97;;;11.40;99.90;;;;;;5103787;28;20016;-76
2022/01/03 03:59:28;;;;;;;4.60;0.70;;;11.10;99.90;;;;;;5086124;28;20073;-76
2022/01/03 04:01:54;;;;;;;6.22;0.93;;;11.00;99.90;;;;;;5085630;28;20252;-76
2022/01/03 04:04:21;;;;;;;2.90;0.60;;;11.10;99.90;;;;;;5087868;28;20307;-76
2022/01/03 04:06:48;;;;;;;3.72;0.85;;;11.10;99.90;;;;;;5065764;28;20061;-77
2022/01/03 04:09:14;;;;;;;9.88;1.55;;;11.10;99.90;;;;;;5082337;28;20032;-76
2022/01/03 04:11:40;;;;;;;5.53;1.10;;;11.20;99.90;;;;;;5065670;28;20321;-76
2022/01/03 04:14:07;;;;;;;2.97;0.65;;;11.50;99.90;;;;;;5065936;28;20303;-76
2022/01/03 04:16:34;;;;;;;5.53;1.10;;;11.60;99.90;;;;;;5065843;28;20107;-76
2022/01/03 04:19:00;;;;;;;6.75;1.00;;;11.40;99.90;;;;;;5065280;28;20032;-76
2022/01/03 04:21:27;;;;;;;2.83;0.70;;;11.30;99.90;;;;;;5083664;28;20025;-76
2022/01/03 04:23:53;;;;;;;6.32;0.82;;;11.10;99.90;;;;;;5082923;28;20070;-76
2022/01/03 04:26:20;;;;;;;8.52;1.10;;;10.90;99.90;;;;;;5065307;28;20331;-76
2022/01/03 04:28:46;;;;;;;3.35;0.75;;;11.10;99.90;;;;;;5082845;28;20074;-76
2022/01/03 04:31:13;;;;;;;4.22;0.80;;;11.10;99.90;;;;;;5065187;28;20029;-77
2022/01/03 04:33:40;;;;;;;6.10;0.88;;;11.00;99.90;;;;;;5081624;28;20059;-77
2022/01/03 04:36:10;;;;;;;4.05;0.82;;;10.90;99.90;;;;;;5083178;28;20028;-76
2022/01/03 04:38:37;;;;;;;5.07;0.80;;;10.70;99.90;;;;;;5065252;28;20095;-76
2022/01/03 04:41:03;;;;;;;4.25;1.02;;;10.70;99.90;;;;;;5065038;28;20095;-76
2022/01/03 04:43:31;;;;;;;5.93;0.98;;;10.90;99.90;;;;;;5065229;28;20056;-76
2022/01/03 04:45:56;;;;;;;4.82;0.88;;;11.00;99.90;;;;;;5064843;28;20025;-76
2022/01/03 04:48:23;;;;;;;5.38;0.93;;;11.00;99.90;;;;;;5065252;28;20376;-76
2022/01/03 04:50:49;;;;;;;5.97;0.90;;;11.00;99.90;;;;;;5064881;28;20063;-77
2022/01/03 04:53:16;;;;;;;4.63;0.90;;;11.10;99.90;;;;;;5080735;28;20307;-77
2022/01/03 04:55:42;;;;;;;3.25;0.90;;;11.20;99.90;;;;;;5064588;28;20024;-77
2022/01/03 04:58:10;;;;;;;5.65;1.05;;;11.20;99.90;;;;;;5082597;28;20067;-77
2022/01/03 05:00:38;;;;;;;7.38;1.10;;;11.20;99.90;;;;;;5065059;28;20043;-77
2022/01/03 05:03:04;;;;;;;5.20;1.38;;;11.10;99.90;;;;;;5069591;28;20024;-77
2022/01/03 05:05:30;;;;;;;6.40;1.10;;;11.10;99.90;;;;;;5101874;28;20303;-77
2022/01/03 05:07:56;;;;;;;6.57;1.15;;;11.10;99.90;;;;;;5102529;28;20028;-77
2022/01/03 05:10:22;;;;;;;5.40;0.95;;;11.10;99.90;;;;;;5084962;28;20052;-77
2022/01/03 05:12:48;;;;;;;9.95;1.48;;;11.00;99.90;;;;;;5084415;28;20024;-77
2022/01/03 05:15:14;;;;;;;6.95;0.82;;;10.80;99.90;;;;;;5084795;28;20024;-76
2022/01/03 05:17:40;;;;;;;5.50;1.10;;;10.50;99.90;;;;;;5084320;28;20070;-76
2022/01/03 05:20:06;;;;;;;7.95;1.40;;;10.40;99.90;;;;;;5084799;28;20062;-77
2022/01/03 05:22:33;;;;;;;6.53;1.05;;;10.30;99.90;;;;;;5084481;28;20060;-76
2022/01/03 05:24:59;;;;;;;10.38;2.20;;;10.20;99.90;;;;;;5083698;28;20024;-76
2022/01/03 05:27:25;;;;;;;6.30;1.38;;;10.10;99.90;;;;;;5084530;28;20058;-77
2022/01/03 05:29:51;;;;;;;6.60;1.30;;;10.00;99.90;;;;;;5084373;28;20085;-79
2022/01/03 05:32:17;;;;;;;6.70;1.08;;;9.90;99.90;;;;;;5084539;28;20107;-77
2022/01/03 05:34:43;;;;;;;6.32;2.03;;;9.90;99.90;;;;;;5083960;28;20215;-77
2022/01/03 05:37:09;;;;;;;9.07;1.48;;;9.90;99.90;;;;;;5084840;28;20031;-77
2022/01/03 05:39:36;;;;;;;9.35;1.15;;;9.80;99.90;;;;;;5084428;28;20036;-77
2022/01/03 05:42:02;;;;;;;7.53;1.23;;;9.80;99.90;;;;;;5102220;28;20382;-77
2022/01/03 05:44:28;;;;;;;8.07;1.17;;;9.70;99.90;;;;;;5101328;28;20058;-76
2022/01/03 05:46:54;;;;;;;6.72;1.55;;;9.70;99.90;;;;;;5084282;28;20024;-77
2022/01/03 05:49:20;;;;;;;9.07;1.38;;;9.70;99.90;;;;;;5084312;28;20032;-77
2022/01/03 05:51:48;;;;;;;8.20;1.73;;;9.70;99.90;;;;;;5084087;28;20085;-77
2022/01/03 05:54:15;;;;;;;7.13;1.45;;;9.60;99.90;;;;;;5102724;28;20099;-77
2022/01/03 05:56:41;;;;;;;5.63;1.33;;;9.60;99.90;;;;;;5084585;28;20031;-77
2022/01/03 05:59:08;;;;;;;8.05;1.88;;;9.60;99.90;;;;;;5101916;28;20303;-77
2022/01/03 06:01:36;;;;;;;11.50;2.03;;;9.60;99.90;;;;;;5083015;28;20028;-76
2022/01/03 06:04:13;;;;;;;8.77;1.80;;;9.60;99.90;;;;;;5097649;28;20095;-77
2022/01/03 06:06:54;;;;;;;7.35;1.60;;;9.60;99.90;;;;;;5088592;28;20206;-77
2022/01/03 06:09:26;;;;;;;8.15;1.42;;;9.50;99.90;;;;;;5088059;28;20361;-76
2022/01/03 06:11:54;;;;;;;8.27;1.35;;;9.50;99.90;;;;;;5087761;28;20046;-77
2022/01/03 06:14:21;;;;;;;6.00;1.17;;;9.50;99.90;;;;;;5071685;28;20054;-78
2022/01/03 06:16:48;;;;;;;5.95;1.35;;;9.50;99.90;;;;;;5105319;28;20382;-78
2022/01/03 06:19:15;;;;;;;10.38;1.60;;;9.50;99.90;;;;;;5067959;28;20033;-78
2022/01/03 06:21:42;;;;;;;9.88;2.35;;;9.60;99.90;;;;;;5084662;28;20096;-77
2022/01/03 06:24:13;;;;;;;10.43;2.35;;;9.60;99.90;;;;;;5067920;28;20055;-78
2022/01/03 06:26:42;;;;;;;8.82;1.80;;;9.60;99.90;;;;;;5067258;28;20377;-78
2022/01/03 06:29:10;;;;;;;9.20;2.57;;;9.60;99.90;;;;;;5084493;28;20311;-78
2022/01/03 06:31:36;;;;;;;6.00;2.25;;;9.60;99.90;;;;;;5067838;28;20361;-78
2022/01/03 06:34:04;;;;;;;8.57;2.20;;;9.50;99.90;;;;;;5072176;28;20028;-77
2022/01/03 06:36:31;;;;;;;7.30;2.33;;;9.60;99.90;;;;;;5111786;28;20077;-78
2022/01/03 06:38:59;;;;;;;9.18;2.03;;;9.50;99.90;;;;;;5090169;28;20043;-76
2022/01/03 06:41:26;;;;;;;8.07;2.10;;;9.50;99.90;;;;;;5088949;28;20055;-78
2022/01/03 06:43:53;;;;;;;6.93;1.98;;;9.50;99.90;;;;;;5088077;28;20016;-79
2022/01/03 06:46:19;;;;;;;8.85;2.10;;;9.50;99.90;;;;;;5087741;28;20035;-78
2022/01/03 06:48:46;;;;;;;12.15;2.95;;;9.50;99.90;;;;;;5088063;28;20036;-78
2022/01/03 06:51:13;;;;;;;8.80;2.50;;;9.50;99.90;;;;;;5088494;28;20040;-78
2022/01/03 06:53:40;;;;;;;12.50;2.75;;;9.40;99.90;;;;;;5088531;28;20024;-78
2022/01/03 06:56:06;;;;;;;9.85;2.20;;;9.40;99.90;;;;;;5087620;28;20249;-78
2022/01/03 06:58:32;;;;;;;10.73;2.40;;;9.40;99.90;;;;;;5087957;28;20306;-79
2022/01/03 07:00:59;;;;;;;7.18;1.80;;;9.40;99.90;;;;;;5086681;28;20047;-78
2022/01/03 07:03:24;;;;;;;9.55;2.60;;;9.30;99.90;;;;;;5087537;28;20091;-78
2022/01/03 07:05:53;;;;;;;10.48;2.33;;;9.30;99.90;;;;;;5105589;28;20032;-79
2022/01/03 07:08:22;;;;;;;8.23;2.08;;;9.30;99.90;;;;;;5083701;28;20031;-79
2022/01/03 07:10:48;;;;;;;8.32;1.98;;;9.30;99.90;;;;;;5067964;28;20053;-79
2022/01/03 07:13:14;;;;;;;6.53;1.75;;;9.30;99.90;;;;;;5063864;28;20051;-79
2022/01/03 07:18:56;;;;;;;8.30;1.90;;;9.30;99.90;;;;;;4983637;28;20047;-79
2022/01/03 07:21:27;;;;;;;9.35;2.70;;;9.30;99.90;;;;;;4964960;29;20177;-79
2022/01/03 07:23:52;;;;;;;6.97;1.83;;;9.30;99.90;;;;;;5028247;28;20052;-79
2022/01/03 07:26:18;;;;;;;11.57;2.05;;;9.30;99.90;;;;;;5075559;28;20061;-79
2022/01/03 07:29:09;;;;;;;11.32;2.15;;;9.40;99.90;;;;;;5084086;28;20066;-79
2022/01/03 07:32:01;;;;;;;8.63;1.98;;;9.40;99.90;;;;;;5101088;28;20095;-79
2022/01/03 07:34:51;;;;;;;8.00;2.00;;;9.40;99.90;;;;;;5104723;28;20030;-79
2022/01/03 07:37:42;;;;;;;9.57;2.10;;;9.40;99.90;;;;;;5104857;28;20171;-79
2022/01/03 07:40:27;;;;;;;7.72;1.77;;;9.40;99.90;;;;;;5104871;28;20038;-79
2022/01/03 07:43:11;;;;;;;8.55;2.42;;;9.40;99.90;;;;;;5104363;28;20088;-79
2022/01/03 07:45:37;;;;;;;9.48;2.00;;;9.40;99.90;;;;;;5098860;28;20036;-76
2022/01/03 07:48:23;;;;;;;10.63;2.47;;;9.30;99.90;;;;;;5084199;28;20222;-78
2022/01/03 07:51:09;;;;;;;8.43;2.17;;;9.30;99.90;;;;;;5083871;28;20383;-77
2022/01/03 07:53:54;;;;;;;6.72;2.30;;;9.30;99.90;;;;;;5083539;28;20264;-77
2022/01/03 07:56:39;;;;;;;7.53;1.88;;;9.30;99.90;;;;;;5084064;28;20066;-77
2022/01/03 07:59:23;;;;;;;9.85;1.95;;;9.30;99.90;;;;;;5083991;28;20039;-77
2022/01/03 08:02:08;;;;;;;6.75;1.95;;;9.40;99.90;;;;;;5082700;28;20059;-76
2022/01/03 08:04:52;;;;;;;9.98;2.28;;;9.40;99.90;;;;;;5063362;28;20322;-76
2022/01/03 08:07:36;;;;;;;7.60;1.92;;;9.50;99.90;;;;;;5063356;28;20139;-77
2022/01/03 08:10:23;;;;;;;9.70;2.92;;;9.50;99.90;;;;;;5062779;28;20047;-78
2022/01/03 08:13:07;;;;;;;10.27;2.20;;;9.50;99.90;;;;;;5068442;28;20035;-77
2022/01/03 08:15:33;;;;;;;8.52;2.20;;;9.40;99.90;;;;;;5049371;28;20037;-78
2022/01/03 08:17:59;;;;;;;10.48;2.10;;;9.40;99.90;;;;;;5083477;28;20058;-78
2022/01/03 08:20:25;;;;;;;7.07;1.75;;;9.40;99.90;;;;;;5084085;28;20016;-78
2022/01/03 08:22:52;;;;;;;6.15;2.15;;;9.40;99.90;;;;;;5084040;28;20036;-78
2022/01/03 08:25:18;;;;;;;11.43;3.20;;;9.50;99.90;;;;;;5082896;28;20032;-78
2022/01/03 08:27:44;;;;;;;7.10;1.85;;;9.60;99.90;;;;;;5083200;28;20073;-78
2022/01/03 08:30:10;;;;;;;8.00;2.05;;;9.50;99.90;;;;;;5083455;28;20064;-78
2022/01/03 08:32:35;;;;;;;7.68;2.00;;;9.60;99.90;;;;;;5104072;28;20020;-76
2022/01/03 08:35:03;;;;;;;10.20;1.98;;;9.60;99.90;;;;;;5103027;28;20066;-77
2022/01/03 08:37:29;;;;;;;9.77;2.42;;;9.60;99.90;;;;;;5085112;28;20066;-77
2022/01/03 08:39:55;;;;;;;8.25;2.03;;;9.60;99.90;;;;;;5103231;28;20155;-76
2022/01/03 08:42:21;;;;;;;12.70;2.10;;;9.70;99.90;;;;;;5103833;28;20028;-77
2022/01/03 08:44:47;;;;;;;8.45;2.20;;;9.80;99.90;;;;;;5103604;28;20034;-76
2022/01/03 08:47:13;;;;;;;11.60;2.40;;;9.80;99.90;;;;;;5102744;28;20354;-75
2022/01/03 08:49:38;;;;;;;7.05;1.85;;;9.80;99.90;;;;;;5085419;28;20222;-76
2022/01/03 08:52:05;;;;;;;8.52;2.42;;;9.90;99.90;;;;;;5084990;28;20028;-78
2022/01/03 08:54:31;;;;;;;9.35;2.97;;;9.90;99.90;;;;;;5085081;28;20028;-79
2022/01/03 08:56:57;;;;;;;9.18;2.55;;;10.00;99.90;;;;;;5084889;28;20330;-78
2022/01/03 08:59:25;;;;;;;9.43;2.95;;;10.10;99.90;;;;;;5095664;28;20024;-78
2022/01/03 09:01:51;;;;;;;7.10;2.17;;;10.20;99.90;;;;;;5102239;28;20073;-78
2022/01/03 09:04:16;;;;;;;9.70;2.33;;;10.20;99.90;;;;;;5084257;28;20079;-78
2022/01/03 09:06:42;;;;;;;7.50;1.83;;;10.30;99.90;;;;;;5103166;28;20073;-78
2022/01/03 09:09:08;;;;;;;8.13;1.77;;;10.30;99.90;;;;;;5102053;28;20024;-79
2022/01/03 09:11:34;;;;;;;10.95;2.40;;;10.40;99.90;;;;;;5102912;28;20032;-79
2022/01/03 09:13:59;;;;;;;10.98;2.28;;;10.40;99.90;;;;;;5102417;28;20055;-77
2022/01/03 09:16:26;;;;;;;11.32;1.92;;;10.40;99.90;;;;;;5084114;28;20319;-78
2022/01/03 09:18:51;;;;;;;9.32;2.53;;;10.50;99.90;;;;;;5084440;28;20040;-79
2022/01/03 09:21:17;;;;;;;14.68;2.47;;;10.50;99.90;;;;;;5101728;28;20265;-79
2022/01/03 09:23:48;;;;;;;10.65;2.60;;;10.60;99.90;;;;;;5084595;28;20031;-79
2022/01/03 09:28:58;;;;;;;9.75;2.05;;;10.80;99.90;;;;;;5102181;28;20170;-79
2022/01/03 09:31:29;;;;;;;9.35;2.53;;;10.80;99.90;;;;;;5101669;28;20031;-78
2022/01/03 09:33:57;;;;;;;10.18;2.60;;;10.90;99.90;;;;;;5088474;28;20043;-78
2022/01/03 09:36:24;;;;;;;;;;;11.00;99.90;;;;;;5084705;28;20058;-78
2022/01/03 09:38:50;;;;;;;15.88;2.88;;;11.00;99.90;;;;;;5101823;28;19904;-78
2022/01/03 09:41:20;;;;;;;9.65;2.35;;;11.00;99.90;;;;;;5101814;28;20035;-80
2022/01/03 09:44:21;;;;;;;10.38;2.88;;;11.10;99.90;;;;;;5084721;28;20051;-79
2022/01/03 09:46:48;;;;;;;10.70;2.65;;;11.10;99.90;;;;;;5030690;28;20036;-79
2022/01/03 09:49:16;;;;;;;7.50;2.42;;;11.10;99.90;;;;;;5047497;28;20067;-78
2022/01/03 09:51:43;;;;;;;12.33;3.17;;;11.20;99.90;;;;;;5064234;28;20063;-79
2022/01/03 09:54:12;;;;;;;15.90;3.97;;;11.10;99.90;;;;;;5081862;28;20211;-80
2022/01/03 09:56:40;;;;;;;8.82;2.13;;;11.10;99.90;;;;;;5064312;28;20029;-77
2022/01/03 09:59:07;;;;;;;7.45;2.80;;;11.10;99.90;;;;;;5081413;28;20230;-78
2022/01/03 10:01:33;;;;;;;7.18;2.58;;;11.20;99.90;;;;;;5094153;28;20223;-78
2022/01/03 10:04:00;;;;;;;17.13;3.30;;;11.20;99.90;;;;;;5101698;28;20027;-78
2022/01/03 10:06:27;;;;;;;10.65;2.08;;;11.30;99.90;;;;;;5102021;28;20229;-78
2022/01/03 10:08:53;;;;;;;14.30;2.60;;;11.50;99.90;;;;;;5101780;28;20068;-77
2022/01/03 10:11:21;;;;;;;8.00;1.63;;;11.60;99.90;;;;;;5066865;28;20091;-76
2022/01/03 10:13:47;;;;;;;6.73;1.87;;;11.70;99.90;;;;;;5102021;28;20043;-77
2022/01/03 10:16:13;;;;;;;7.25;1.52;;;11.80;99.90;;;;;;5090780;28;20531;-76
2022/01/03 10:18:39;;;;;;;7.53;1.65;;;11.90;99.90;;;;;;5082010;28;20037;-77
2022/01/03 10:21:07;;;;;;;9.15;1.13;;;11.90;99.90;;;;;;5083736;28;20333;-76
2022/01/03 10:23:34;;;;;;;5.40;1.27;;;11.90;99.90;;;;;;5064437;28;20227;-76
2022/01/03 10:26:17;;;;;;;6.40;1.30;;;12.00;99.90;;;;;;5046892;28;20040;-77
2022/01/03 10:28:44;;;;;;;7.63;1.85;;;12.10;99.90;;;;;;5082015;28;20024;-77
2022/01/03 10:31:20;;;;;;;7.47;2.20;;;12.10;99.90;;;;;;5080871;28;20278;-78
2022/01/03 10:33:48;;;;;;;6.47;1.40;;;12.10;99.90;;;;;;5081768;28;20062;-78
2022/01/03 10:36:31;;;;;;;3.70;1.05;;;12.10;99.90;;;;;;5081137;28;20036;-78
2022/01/03 10:38:59;;;;;;;5.80;0.82;;;12.10;99.90;;;;;;5046941;28;20036;-80
2022/01/03 10:41:25;;;;;;;7.13;1.20;;;12.10;99.90;;;;;;5063432;28;20103;-78
2022/01/03 10:43:56;;;;;;;4.45;1.02;;;12.10;99.90;;;;;;5081370;28;20207;-79
2022/01/03 10:46:25;;;;;;;4.63;1.20;;;12.10;99.90;;;;;;5080408;28;20269;-77
2022/01/03 10:48:56;;;;;;;4.75;1.02;;;12.20;99.90;;;;;;5063250;28;20115;-77
2022/01/03 10:51:25;;;;;;;4.90;1.10;;;12.20;99.90;;;;;;5064982;28;20079;-76
2022/01/03 10:53:53;;;;;;;5.82;1.67;;;12.30;99.90;;;;;;5085130;28;20108;-76
2022/01/03 10:56:30;;;;;;;;;;;12.30;99.90;;;;;;5085474;28;20021;-77
2022/01/03 10:59:18;;;;;;;4.80;1.00;;;12.40;99.90;;;;;;5085396;28;20011;-77
2022/01/03 11:01:48;;;;;;;8.65;1.20;;;12.50;99.90;;;;;;5084785;28;20044;-78
2022/01/03 11:04:40;;;;;;;7.03;1.30;;;12.50;99.90;;;;;;5066860;28;20028;-79
2022/01/03 11:13:11;;;;;;;4.70;1.20;;;12.60;99.90;;;;;;5085709;28;20167;-77
2022/01/03 11:15:39;;;;;;;6.70;1.25;;;12.60;99.90;;;;;;5066995;28;20032;-77
2022/01/03 11:18:38;;;;;;;6.32;1.70;;;12.70;99.90;;;;;;5066749;28;20126;-77
2022/01/03 11:21:04;;;;;;;5.80;1.08;;;12.70;99.90;;;;;;5067043;28;20028;-77
2022/01/03 11:23:29;;;;;;;6.15;1.30;;;12.80;99.90;;;;;;5085009;28;20016;-79
2022/01/03 11:25:55;;;;;;;4.15;0.90;;;12.90;99.90;;;;;;5084750;28;20086;-79
2022/01/03 11:28:24;;;;;;;6.63;1.30;;;13.00;99.90;;;;;;5083842;28;20237;-78
2022/01/03 11:30:53;;;;;;;5.35;1.00;;;13.00;99.90;;;;;;5083717;28;20051;-78
2022/01/03 11:33:19;;;;;;;;;;;13.10;99.90;;;;;;5066771;28;20029;-78
2022/01/03 11:35:49;;;;;;;6.75;1.02;;;13.00;99.90;;;;;;5066723;28;19907;-78
2022/01/03 11:38:21;;;;;;;7.68;1.30;;;13.10;99.90;;;;;;5083711;28;20036;-78
2022/01/03 11:40:47;;;;;;;7.20;1.13;;;13.00;99.90;;;;;;5084675;28;20230;-79
2022/01/03 11:43:14;;;;;;;5.97;1.42;;;13.10;99.90;;;;;;5082009;28;20276;-77
2022/01/03 11:45:40;;;;;;;3.80;1.00;;;13.20;99.90;;;;;;5065261;28;20033;-78
2022/01/03 11:48:11;;;;;;;7.53;1.08;;;13.30;99.90;;;;;;5045961;28;20052;-78
2022/01/03 11:50:38;;;;;;;6.15;1.17;;;13.50;99.90;;;;;;5064090;28;20028;-77
2022/01/03 11:53:07;;;;;;;5.82;1.35;;;13.40;99.90;;;;;;5046355;28;20021;-78
2022/01/03 11:55:34;;;;;;;5.50;0.90;;;13.40;99.90;;;;;;5064184;28;20048;-78
2022/01/03 11:58:20;;;;;;;5.78;1.15;;;13.40;99.90;;;;;;5046417;28;20040;-78
2022/01/03 12:03:49;;;;;;;4.60;1.10;;;13.60;99.90;;;;;;5063727;28;20027;-79
2022/01/03 12:06:30;;;;;;;4.80;1.00;;;13.60;99.90;;;;;;5045843;28;20254;-77
2022/01/03 12:09:08;;;;;;;6.65;1.02;;;13.70;99.90;;;;;;5063959;28;20100;-76
2022/01/03 12:11:45;;;;;;;5.17;0.80;;;13.60;99.90;;;;;;5063854;28;20032;-78
2022/01/03 12:14:13;;;;;;;6.47;1.75;;;13.50;99.90;;;;;;5051841;28;20455;-79
2022/01/03 12:16:47;;;;;;;4.28;0.80;;;13.50;99.90;;;;;;5083200;28;20123;-77
2022/01/03 12:19:35;;;;;;;4.55;1.00;;;13.40;99.90;;;;;;5083499;28;20036;-77
2022/01/03 12:22:17;;;;;;;3.08;0.50;;;13.40;99.90;;;;;;5079142;28;20195;-77
2022/01/03 12:25:04;;;;;;;3.97;0.70;;;13.30;99.90;;;;;;5083891;28;20020;-78
2022/01/03 12:27:39;;;;;;;3.00;0.70;;;13.40;99.90;;;;;;5065504;28;20055;-77
2022/01/03 12:30:08;;;;;;;2.97;0.75;;;13.50;99.90;;;;;;5065382;28;20040;-78
2022/01/03 12:32:35;;;;;;;4.70;0.93;;;13.50;99.90;;;;;;5083358;28;20036;-77
2022/01/03 12:35:08;;;;;;;5.05;0.85;;;13.60;99.90;;;;;;5045919;28;20037;-78
2022/01/03 12:37:35;;;;;;;4.93;1.08;;;13.50;99.90;;;;;;5063372;28;20029;-77
2022/01/03 12:40:04;;;;;;;4.97;0.77;;;13.40;99.90;;;;;;5062241;28;20049;-78
2022/01/03 12:42:51;;;;;;;3.33;0.73;;;13.30;99.90;;;;;;5063680;28;20368;-78
2022/01/03 12:45:29;;;;;;;3.28;0.65;;;13.30;99.90;;;;;;5062248;28;20033;-77
2022/01/03 12:48:10;;;;;;;4.55;0.60;;;13.30;99.90;;;;;;5067703;28;20134;-78
2022/01/03 12:50:40;;;;;;;3.45;0.60;;;13.20;99.90;;;;;;5065432;28;20276;-79
2022/01/03 12:53:18;;;;;;;6.30;0.82;;;13.20;99.90;;;;;;5082903;28;20032;-78
2022/01/03 12:55:48;;;;;;;6.13;0.80;;;13.20;99.90;;;;;;5081054;28;20059;-79
2022/01/03 12:58:14;;;;;;;2.25;0.68;;;13.20;99.90;;;;;;5082253;28;20024;-78
2022/01/03 13:00:59;;;;;;;9.27;1.52;;;13.20;99.90;;;;;;5064302;28;20063;-78
2022/01/03 13:03:53;;;;;;;5.40;0.95;;;13.10;99.90;;;;;;5076565;28;20036;-78
2022/01/03 13:06:33;;;;;;;5.30;0.77;;;13.10;99.90;;;;;;5081954;28;20085;-78
2022/01/03 13:09:04;;;;;;;5.10;1.05;;;13.10;99.90;;;;;;5082505;28;20318;-78
2022/01/03 13:11:31;;;;;;;4.43;1.25;;;13.20;99.90;;;;;;5064441;28;20052;-78
2022/01/03 13:14:09;;;;;;;5.75;1.17;;;13.20;99.90;;;;;;5047430;28;20100;-78
2022/01/03 13:16:40;;;;;;;5.18;0.90;;;13.30;99.90;;;;;;5064083;28;20093;-77
2022/01/03 13:19:13;;;;;;;3.58;0.88;;;13.30;99.90;;;;;;5082196;28;20096;-77
2022/01/03 13:21:51;;;;;;;4.18;1.00;;;13.30;99.90;;;;;;5082234;28;20055;-78
2022/01/03 13:24:24;;;;;;;6.18;0.95;;;13.30;99.90;;;;;;5076152;28;20196;-77